Terminal Aerodrome Forecast
Issued by NWS

Home | Current Version | Previous Version | Text Only | Print | Product List | Glossary On
Versions: 1 2 3 4 5 6 7 8 9 10 11 12
000
FTUS45 KRIW 181724
TAFRKS
TAF
KRKS 181724Z 1818/1918 06011G20KT P6SM VCSH OVC035
     FM190400 06015G25KT 1 1/2SM -SN OVC014=

USA.gov is the U.S. government's official web portal to all federal, state and local government web resources and services.